sensor_id;sensor_type;location;lat;lon;timestamp;temperature;humidity
17252;DHT22;8742;51.716;8.790;2022-08-25T00:00:35;23.30;95.80
17252;DHT22;8742;51.716;8.790;2022-08-25T00:03:02;23.30;96.10
17252;DHT22;8742;51.716;8.790;2022-08-25T00:05:30;23.20;72.60
17252;DHT22;8742;51.716;8.790;2022-08-25T00:07:57;23.20;68.20
17252;DHT22;8742;51.716;8.790;2022-08-25T00:10:24;23.20;68.60
17252;DHT22;8742;51.716;8.790;2022-08-25T00:12:51;23.20;68.60
17252;DHT22;8742;51.716;8.790;2022-08-25T00:15:18;23.20;68.60
17252;DHT22;8742;51.716;8.790;2022-08-25T00:17:47;23.20;68.80
17252;DHT22;8742;51.716;8.790;2022-08-25T00:20:15;23.10;68.90
17252;DHT22;8742;51.716;8.790;2022-08-25T00:22:43;23.10;69.20
17252;DHT22;8742;51.716;8.790;2022-08-25T00:25:10;23.10;69.00
17252;DHT22;8742;51.716;8.790;2022-08-25T00:27:37;23.00;69.00
17252;DHT22;8742;51.716;8.790;2022-08-25T00:30:05;23.00;69.40
17252;DHT22;8742;51.716;8.790;2022-08-25T00:32:33;22.90;80.70
17252;DHT22;8742;51.716;8.790;2022-08-25T00:34:59;22.90;78.00
17252;DHT22;8742;51.716;8.790;2022-08-25T00:37:26;22.80;77.20
17252;DHT22;8742;51.716;8.790;2022-08-25T00:39:55;22.80;80.00
17252;DHT22;8742;51.716;8.790;2022-08-25T00:42:23;22.90;81.20
17252;DHT22;8742;51.716;8.790;2022-08-25T00:44:50;22.80;83.80
17252;DHT22;8742;51.716;8.790;2022-08-25T00:47:18;22.80;83.60
17252;DHT22;8742;51.716;8.790;2022-08-25T00:49:48;22.80;82.20
17252;DHT22;8742;51.716;8.790;2022-08-25T00:52:19;22.80;81.70
17252;DHT22;8742;51.716;8.790;2022-08-25T00:54:51;22.80;81.20
17252;DHT22;8742;51.716;8.790;2022-08-25T00:57:23;22.80;81.40
17252;DHT22;8742;51.716;8.790;2022-08-25T00:59:50;22.80;81.90
17252;DHT22;8742;51.716;8.790;2022-08-25T01:02:17;22.80;82.10
17252;DHT22;8742;51.716;8.790;2022-08-25T01:04:45;22.80;81.50
17252;DHT22;8742;51.716;8.790;2022-08-25T01:07:12;22.80;81.60
17252;DHT22;8742;51.716;8.790;2022-08-25T01:09:41;22.70;81.70
17252;DHT22;8742;51.716;8.790;2022-08-25T01:12:09;22.80;82.10
17252;DHT22;8742;51.716;8.790;2022-08-25T01:14:38;22.70;84.40
17252;DHT22;8742;51.716;8.790;2022-08-25T01:17:05;22.70;84.10
17252;DHT22;8742;51.716;8.790;2022-08-25T01:19:32;22.70;83.90
17252;DHT22;8742;51.716;8.790;2022-08-25T01:22:00;22.70;84.30
17252;DHT22;8742;51.716;8.790;2022-08-25T01:24:34;22.70;83.80
17252;DHT22;8742;51.716;8.790;2022-08-25T01:27:03;22.60;82.80
17252;DHT22;8742;51.716;8.790;2022-08-25T01:29:31;22.60;82.60
17252;DHT22;8742;51.716;8.790;2022-08-25T01:32:01;22.60;82.20
17252;DHT22;8742;51.716;8.790;2022-08-25T01:34:30;22.50;78.00
17252;DHT22;8742;51.716;8.790;2022-08-25T01:36:58;22.50;76.40
17252;DHT22;8742;51.716;8.790;2022-08-25T01:39:28;22.50;75.10
17252;DHT22;8742;51.716;8.790;2022-08-25T01:42:08;22.50;74.80
17252;DHT22;8742;51.716;8.790;2022-08-25T01:44:40;22.50;73.10
17252;DHT22;8742;51.716;8.790;2022-08-25T01:47:08;22.40;72.70
17252;DHT22;8742;51.716;8.790;2022-08-25T01:49:35;22.40;72.80
17252;DHT22;8742;51.716;8.790;2022-08-25T01:52:06;22.40;72.60
17252;DHT22;8742;51.716;8.790;2022-08-25T01:54:37;22.40;72.80
17252;DHT22;8742;51.716;8.790;2022-08-25T01:57:04;22.30;72.80
17252;DHT22;8742;51.716;8.790;2022-08-25T01:59:31;22.30;72.80
17252;DHT22;8742;51.716;8.790;2022-08-25T02:01:58;22.30;72.80
17252;DHT22;8742;51.716;8.790;2022-08-25T02:04:26;22.30;73.00
17252;DHT22;8742;51.716;8.790;2022-08-25T02:06:54;22.30;73.40
17252;DHT22;8742;51.716;8.790;2022-08-25T02:09:20;22.20;73.50
17252;DHT22;8742;51.716;8.790;2022-08-25T02:11:49;22.30;73.60
17252;DHT22;8742;51.716;8.790;2022-08-25T02:14:16;22.20;73.80
17252;DHT22;8742;51.716;8.790;2022-08-25T02:16:46;22.20;74.20
17252;DHT22;8742;51.716;8.790;2022-08-25T02:19:14;22.20;75.20
17252;DHT22;8742;51.716;8.790;2022-08-25T02:21:41;22.10;76.20
17252;DHT22;8742;51.716;8.790;2022-08-25T02:24:08;22.10;77.80
17252;DHT22;8742;51.716;8.790;2022-08-25T02:26:37;22.10;80.70
17252;DHT22;8742;51.716;8.790;2022-08-25T02:29:06;22.10;83.90
17252;DHT22;8742;51.716;8.790;2022-08-25T02:31:33;22.00;92.60
17252;DHT22;8742;51.716;8.790;2022-08-25T02:34:00;22.00;95.20
17252;DHT22;8742;51.716;8.790;2022-08-25T02:36:28;22.00;96.70
17252;DHT22;8742;51.716;8.790;2022-08-25T02:38:55;22.00;96.00
17252;DHT22;8742;51.716;8.790;2022-08-25T02:41:23;21.90;95.40
17252;DHT22;8742;51.716;8.790;2022-08-25T02:43:51;21.90;95.00
17252;DHT22;8742;51.716;8.790;2022-08-25T02:46:21;21.80;94.80
17252;DHT22;8742;51.716;8.790;2022-08-25T02:48:49;21.80;96.10
17252;DHT22;8742;51.716;8.790;2022-08-25T02:51:18;21.80;96.50
17252;DHT22;8742;51.716;8.790;2022-08-25T02:53:46;21.80;96.00
17252;DHT22;8742;51.716;8.790;2022-08-25T02:56:15;21.70;95.50
17252;DHT22;8742;51.716;8.790;2022-08-25T02:58:43;21.70;95.40
17252;DHT22;8742;51.716;8.790;2022-08-25T03:01:10;21.60;96.10
17252;DHT22;8742;51.716;8.790;2022-08-25T03:03:39;21.60;96.70
17252;DHT22;8742;51.716;8.790;2022-08-25T03:06:06;21.60;97.50
17252;DHT22;8742;51.716;8.790;2022-08-25T03:08:34;21.60;98.30
17252;DHT22;8742;51.716;8.790;2022-08-25T03:11:01;21.50;99.30
17252;DHT22;8742;51.716;8.790;2022-08-25T03:13:28;21.50;99.80
17252;DHT22;8742;51.716;8.790;2022-08-25T03:15:55;21.50;99.90
17252;DHT22;8742;51.716;8.790;2022-08-25T03:18:22;21.40;98.90
17252;DHT22;8742;51.716;8.790;2022-08-25T03:23:19;21.30;99.90
17252;DHT22;8742;51.716;8.790;2022-08-25T03:40:49;20.90;99.90
17252;DHT22;8742;51.716;8.790;2022-08-25T03:43:16;20.80;84.80
17252;DHT22;8742;51.716;8.790;2022-08-25T03:45:44;20.70;81.00
17252;DHT22;8742;51.716;8.790;2022-08-25T03:48:12;20.60;90.30
17252;DHT22;8742;51.716;8.790;2022-08-25T03:50:43;20.50;99.40
17252;DHT22;8742;51.716;8.790;2022-08-25T06:11:29;22.30;99.90
17252;DHT22;8742;51.716;8.790;2022-08-25T06:13:56;22.40;99.90
17252;DHT22;8742;51.716;8.790;2022-08-25T06:16:23;22.50;99.90
17252;DHT22;8742;51.716;8.790;2022-08-25T06:18:50;22.60;92.30
17252;DHT22;8742;51.716;8.790;2022-08-25T06:21:17;22.80;82.60
17252;DHT22;8742;51.716;8.790;2022-08-25T06:23:43;22.90;82.50
17252;DHT22;8742;51.716;8.790;2022-08-25T06:26:12;23.00;88.90
17252;DHT22;8742;51.716;8.790;2022-08-25T06:28:40;23.10;99.90
17252;DHT22;8742;51.716;8.790;2022-08-25T06:40:56;23.50;99.90
17252;DHT22;8742;51.716;8.790;2022-08-25T06:43:25;23.70;90.40
17252;DHT22;8742;51.716;8.790;2022-08-25T06:45:52;23.80;82.20
17252;DHT22;8742;51.716;8.790;2022-08-25T06:48:19;23.90;82.10
17252;DHT22;8742;51.716;8.790;2022-08-25T06:50:46;24.00;82.30
17252;DHT22;8742;51.716;8.790;2022-08-25T06:53:13;24.10;82.30
17252;DHT22;8742;51.716;8.790;2022-08-25T06:55:40;24.10;90.10
17252;DHT22;8742;51.716;8.790;2022-08-25T06:58:07;24.20;93.90
17252;DHT22;8742;51.716;8.790;2022-08-25T07:00:36;24.20;92.50
17252;DHT22;8742;51.716;8.790;2022-08-25T07:03:03;24.30;92.90
17252;DHT22;8742;51.716;8.790;2022-08-25T07:05:30;24.40;96.00
17252;DHT22;8742;51.716;8.790;2022-08-25T07:07:57;24.40;98.40
17252;DHT22;8742;51.716;8.790;2022-08-25T07:10:24;24.50;98.90
17252;DHT22;8742;51.716;8.790;2022-08-25T07:17:48;24.80;99.90
17252;DHT22;8742;51.716;8.790;2022-08-25T07:20:16;24.80;86.90
17252;DHT22;8742;51.716;8.790;2022-08-25T07:22:44;25.00;82.60
17252;DHT22;8742;51.716;8.790;2022-08-25T07:30:07;25.30;97.30
17252;DHT22;8742;51.716;8.790;2022-08-25T07:32:35;25.50;98.30
17252;DHT22;8742;51.716;8.790;2022-08-25T07:47:36;26.20;81.30
17252;DHT22;8742;51.716;8.790;2022-08-25T07:50:06;26.20;82.10
17252;DHT22;8742;51.716;8.790;2022-08-25T07:52:34;26.30;82.20
17252;DHT22;8742;51.716;8.790;2022-08-25T07:55:01;26.30;82.00
17252;DHT22;8742;51.716;8.790;2022-08-25T07:57:28;26.40;82.30
17252;DHT22;8742;51.716;8.790;2022-08-25T07:59:56;26.50;82.10
17252;DHT22;8742;51.716;8.790;2022-08-25T08:02:23;26.60;82.20
17252;DHT22;8742;51.716;8.790;2022-08-25T08:04:52;26.70;82.10
17252;DHT22;8742;51.716;8.790;2022-08-25T08:09:49;27.00;93.60
17252;DHT22;8742;51.716;8.790;2022-08-25T08:12:16;27.10;81.80
17252;DHT22;8742;51.716;8.790;2022-08-25T08:14:43;27.20;81.60
17252;DHT22;8742;51.716;8.790;2022-08-25T08:17:11;27.20;81.60
17252;DHT22;8742;51.716;8.790;2022-08-25T08:19:38;27.20;81.60
17252;DHT22;8742;51.716;8.790;2022-08-25T08:22:05;27.20;81.50
17252;DHT22;8742;51.716;8.790;2022-08-25T08:24:33;27.30;81.50
17252;DHT22;8742;51.716;8.790;2022-08-25T08:27:04;27.30;81.40
17252;DHT22;8742;51.716;8.790;2022-08-25T08:31:59;27.50;89.70
17252;DHT22;8742;51.716;8.790;2022-08-25T08:34:26;27.60;89.10
17252;DHT22;8742;51.716;8.790;2022-08-25T08:36:53;27.70;89.50
17252;DHT22;8742;51.716;8.790;2022-08-25T08:39:20;27.70;90.10
17252;DHT22;8742;51.716;8.790;2022-08-25T08:47:19;28.00;91.20
17252;DHT22;8742;51.716;8.790;2022-08-25T08:49:52;28.10;90.90
17252;DHT22;8742;51.716;8.790;2022-08-25T08:52:39;28.20;91.60
17252;DHT22;8742;51.716;8.790;2022-08-25T08:55:11;28.20;91.50
17252;DHT22;8742;51.716;8.790;2022-08-25T08:57:45;28.20;91.60
17252;DHT22;8742;51.716;8.790;2022-08-25T09:00:14;28.30;92.30
17252;DHT22;8742;51.716;8.790;2022-08-25T09:02:48;28.40;94.80
17252;DHT22;8742;51.716;8.790;2022-08-25T09:10:15;28.70;99.90
17252;DHT22;8742;51.716;8.790;2022-08-25T10:03:26;30.30;76.10
17252;DHT22;8742;51.716;8.790;2022-08-25T10:06:00;30.30;76.70
17252;DHT22;8742;51.716;8.790;2022-08-25T10:08:34;30.40;76.30
17252;DHT22;8742;51.716;8.790;2022-08-25T10:11:05;30.40;76.60
17252;DHT22;8742;51.716;8.790;2022-08-25T10:13:41;30.40;76.50
17252;DHT22;8742;51.716;8.790;2022-08-25T10:16:18;30.50;76.30
17252;DHT22;8742;51.716;8.790;2022-08-25T10:18:59;30.60;76.50
17252;DHT22;8742;51.716;8.790;2022-08-25T10:21:27;30.60;75.60
17252;DHT22;8742;51.716;8.790;2022-08-25T10:23:54;30.60;75.60
17252;DHT22;8742;51.716;8.790;2022-08-25T10:26:29;30.60;74.60
17252;DHT22;8742;51.716;8.790;2022-08-25T10:29:09;30.50;75.20
17252;DHT22;8742;51.716;8.790;2022-08-25T10:31:44;30.50;75.60
17252;DHT22;8742;51.716;8.790;2022-08-25T10:34:28;30.50;74.70
17252;DHT22;8742;51.716;8.790;2022-08-25T10:37:08;30.60;75.30
17252;DHT22;8742;51.716;8.790;2022-08-25T10:39:40;30.60;74.90
17252;DHT22;8742;51.716;8.790;2022-08-25T10:42:20;30.70;75.40
17252;DHT22;8742;51.716;8.790;2022-08-25T10:44:56;30.80;75.20
17252;DHT22;8742;51.716;8.790;2022-08-25T10:47:58;30.90;75.20
17252;DHT22;8742;51.716;8.790;2022-08-25T10:50:32;30.90;75.10
17252;DHT22;8742;51.716;8.790;2022-08-25T10:53:19;31.00;74.70
17252;DHT22;8742;51.716;8.790;2022-08-25T10:55:56;31.00;74.30
17252;DHT22;8742;51.716;8.790;2022-08-25T10:58:35;31.10;74.40
17252;DHT22;8742;51.716;8.790;2022-08-25T11:01:14;31.20;74.30
17252;DHT22;8742;51.716;8.790;2022-08-25T11:03:49;31.30;74.00
17252;DHT22;8742;51.716;8.790;2022-08-25T11:06:21;31.30;74.10
17252;DHT22;8742;51.716;8.790;2022-08-25T11:08:53;31.40;73.60
17252;DHT22;8742;51.716;8.790;2022-08-25T11:11:27;31.40;73.00
17252;DHT22;8742;51.716;8.790;2022-08-25T11:13:59;31.30;72.80
17252;DHT22;8742;51.716;8.790;2022-08-25T11:16:34;31.40;72.80
17252;DHT22;8742;51.716;8.790;2022-08-25T11:19:10;31.40;73.00
17252;DHT22;8742;51.716;8.790;2022-08-25T11:21:48;31.40;73.30
17252;DHT22;8742;51.716;8.790;2022-08-25T11:24:29;31.50;73.00
17252;DHT22;8742;51.716;8.790;2022-08-25T11:26:58;31.50;72.50
17252;DHT22;8742;51.716;8.790;2022-08-25T11:29:29;31.50;72.50
17252;DHT22;8742;51.716;8.790;2022-08-25T11:31:59;31.60;72.70
17252;DHT22;8742;51.716;8.790;2022-08-25T11:34:30;31.60;72.50
17252;DHT22;8742;51.716;8.790;2022-08-25T11:37:00;31.60;72.50
17252;DHT22;8742;51.716;8.790;2022-08-25T11:42:40;31.60;71.40
17252;DHT22;8742;51.716;8.790;2022-08-25T11:45:22;31.50;71.20
17252;DHT22;8742;51.716;8.790;2022-08-25T11:48:07;31.40;71.50
17252;DHT22;8742;51.716;8.790;2022-08-25T11:50:55;31.40;71.50
17252;DHT22;8742;51.716;8.790;2022-08-25T11:53:26;31.40;71.60
17252;DHT22;8742;51.716;8.790;2022-08-25T11:55:56;31.50;71.40
17252;DHT22;8742;51.716;8.790;2022-08-25T11:58:36;31.50;71.00
17252;DHT22;8742;51.716;8.790;2022-08-25T12:01:08;31.40;71.20
17252;DHT22;8742;51.716;8.790;2022-08-25T12:03:52;31.40;71.30
17252;DHT22;8742;51.716;8.790;2022-08-25T12:06:27;31.50;71.30
17252;DHT22;8742;51.716;8.790;2022-08-25T12:09:18;31.60;70.90
17252;DHT22;8742;51.716;8.790;2022-08-25T12:11:50;31.70;71.20
17252;DHT22;8742;51.716;8.790;2022-08-25T12:14:42;31.70;70.70
17252;DHT22;8742;51.716;8.790;2022-08-25T12:17:25;31.80;70.10
17252;DHT22;8742;51.716;8.790;2022-08-25T12:19:57;31.80;69.80
17252;DHT22;8742;51.716;8.790;2022-08-25T12:22:53;31.90;78.50
17252;DHT22;8742;51.716;8.790;2022-08-25T12:25:44;32.00;79.60
17252;DHT22;8742;51.716;8.790;2022-08-25T12:28:35;32.20;70.10
17252;DHT22;8742;51.716;8.790;2022-08-25T12:31:20;32.30;70.30
17252;DHT22;8742;51.716;8.790;2022-08-25T12:34:04;32.40;69.50
17252;DHT22;8742;51.716;8.790;2022-08-25T12:36:33;32.50;70.20
17252;DHT22;8742;51.716;8.790;2022-08-25T12:39:15;32.60;69.80
17252;DHT22;8742;51.716;8.790;2022-08-25T12:41:53;32.60;74.60
17252;DHT22;8742;51.716;8.790;2022-08-25T12:44:38;32.60;74.80
17252;DHT22;8742;51.716;8.790;2022-08-25T12:47:12;32.60;75.40
17252;DHT22;8742;51.716;8.790;2022-08-25T12:49:40;32.60;75.10
17252;DHT22;8742;51.716;8.790;2022-08-25T12:52:11;32.60;75.10
17252;DHT22;8742;51.716;8.790;2022-08-25T12:54:46;32.70;75.70
17252;DHT22;8742;51.716;8.790;2022-08-25T12:57:25;32.70;76.00
17252;DHT22;8742;51.716;8.790;2022-08-25T12:59:56;32.80;77.00
17252;DHT22;8742;51.716;8.790;2022-08-25T13:02:45;32.90;80.00
17252;DHT22;8742;51.716;8.790;2022-08-25T13:08:35;32.90;79.50
17252;DHT22;8742;51.716;8.790;2022-08-25T13:11:09;32.80;79.90
17252;DHT22;8742;51.716;8.790;2022-08-25T13:13:51;32.80;79.40
17252;DHT22;8742;51.716;8.790;2022-08-25T13:16:23;32.80;79.90
17252;DHT22;8742;51.716;8.790;2022-08-25T13:18:51;32.90;80.00
17252;DHT22;8742;51.716;8.790;2022-08-25T13:21:24;32.90;79.00
17252;DHT22;8742;51.716;8.790;2022-08-25T13:23:55;32.80;79.20
17252;DHT22;8742;51.716;8.790;2022-08-25T13:26:27;32.80;79.70
17252;DHT22;8742;51.716;8.790;2022-08-25T13:28:58;32.90;79.60
17252;DHT22;8742;51.716;8.790;2022-08-25T13:31:27;33.00;79.70
17252;DHT22;8742;51.716;8.790;2022-08-25T13:33:56;33.00;80.40
17252;DHT22;8742;51.716;8.790;2022-08-25T13:36:25;33.10;79.60
17252;DHT22;8742;51.716;8.790;2022-08-25T13:39:17;33.10;79.90
17252;DHT22;8742;51.716;8.790;2022-08-25T13:41:48;33.10;79.90
17252;DHT22;8742;51.716;8.790;2022-08-25T13:44:16;33.10;80.00
17252;DHT22;8742;51.716;8.790;2022-08-25T13:46:43;33.10;79.80
17252;DHT22;8742;51.716;8.790;2022-08-25T13:49:12;33.10;79.90
17252;DHT22;8742;51.716;8.790;2022-08-25T13:51:50;33.10;79.70
17252;DHT22;8742;51.716;8.790;2022-08-25T13:54:24;33.10;78.90
17252;DHT22;8742;51.716;8.790;2022-08-25T13:57:03;33.00;78.80
17252;DHT22;8742;51.716;8.790;2022-08-25T13:59:34;33.00;91.30
17252;DHT22;8742;51.716;8.790;2022-08-25T14:02:03;32.90;90.70
17252;DHT22;8742;51.716;8.790;2022-08-25T14:04:43;32.90;90.30
17252;DHT22;8742;51.716;8.790;2022-08-25T14:07:24;32.80;83.90
17252;DHT22;8742;51.716;8.790;2022-08-25T14:09:53;32.90;82.80
17252;DHT22;8742;51.716;8.790;2022-08-25T14:12:35;33.00;82.40
17252;DHT22;8742;51.716;8.790;2022-08-25T14:15:07;33.00;81.70
17252;DHT22;8742;51.716;8.790;2022-08-25T14:17:36;33.00;80.90
17252;DHT22;8742;51.716;8.790;2022-08-25T14:20:05;33.00;81.50
17252;DHT22;8742;51.716;8.790;2022-08-25T14:22:40;33.10;80.60
17252;DHT22;8742;51.716;8.790;2022-08-25T14:25:07;33.10;80.10
17252;DHT22;8742;51.716;8.790;2022-08-25T14:27:36;33.10;79.30
17252;DHT22;8742;51.716;8.790;2022-08-25T14:30:07;33.10;79.40
17252;DHT22;8742;51.716;8.790;2022-08-25T14:32:34;32.90;82.00
17252;DHT22;8742;51.716;8.790;2022-08-25T14:35:01;32.70;80.40
17252;DHT22;8742;51.716;8.790;2022-08-25T14:37:29;32.50;65.10
17252;DHT22;8742;51.716;8.790;2022-08-25T14:39:56;32.30;65.20
17252;DHT22;8742;51.716;8.790;2022-08-25T14:42:23;32.10;65.30
17252;DHT22;8742;51.716;8.790;2022-08-25T14:44:52;32.20;65.90
17252;DHT22;8742;51.716;8.790;2022-08-25T14:47:19;32.20;65.20
17252;DHT22;8742;51.716;8.790;2022-08-25T14:49:47;32.40;65.70
17252;DHT22;8742;51.716;8.790;2022-08-25T14:52:18;32.50;65.50
17252;DHT22;8742;51.716;8.790;2022-08-25T14:54:46;32.70;65.10
17252;DHT22;8742;51.716;8.790;2022-08-25T14:57:13;33.00;65.00
17252;DHT22;8742;51.716;8.790;2022-08-25T14:59:40;33.40;64.80
17252;DHT22;8742;51.716;8.790;2022-08-25T15:02:09;33.80;71.50
17252;DHT22;8742;51.716;8.790;2022-08-25T15:04:37;34.40;90.50
17252;DHT22;8742;51.716;8.790;2022-08-25T15:07:04;35.00;88.60
17252;DHT22;8742;51.716;8.790;2022-08-25T15:09:51;35.80;62.10
17252;DHT22;8742;51.716;8.790;2022-08-25T15:14:46;36.90;60.80
17252;DHT22;8742;51.716;8.790;2022-08-25T15:17:14;37.40;61.20
17252;DHT22;8742;51.716;8.790;2022-08-25T15:19:42;37.80;60.50
17252;DHT22;8742;51.716;8.790;2022-08-25T15:22:09;38.30;60.60
17252;DHT22;8742;51.716;8.790;2022-08-25T15:24:36;38.70;60.00
17252;DHT22;8742;51.716;8.790;2022-08-25T15:27:04;39.10;60.40
17252;DHT22;8742;51.716;8.790;2022-08-25T15:29:34;39.50;60.00
17252;DHT22;8742;51.716;8.790;2022-08-25T15:32:03;39.90;60.00
17252;DHT22;8742;51.716;8.790;2022-08-25T15:34:33;40.20;59.90
17252;DHT22;8742;51.716;8.790;2022-08-25T15:37:07;40.50;59.10
17252;DHT22;8742;51.716;8.790;2022-08-25T15:39:35;40.70;59.30
17252;DHT22;8742;51.716;8.790;2022-08-25T15:42:04;40.80;58.90
17252;DHT22;8742;51.716;8.790;2022-08-25T15:44:32;40.90;59.00
17252;DHT22;8742;51.716;8.790;2022-08-25T15:46:59;40.80;58.00
17252;DHT22;8742;51.716;8.790;2022-08-25T15:49:27;40.70;58.20
17252;DHT22;8742;51.716;8.790;2022-08-25T15:51:55;40.70;58.30
17252;DHT22;8742;51.716;8.790;2022-08-25T15:54:23;40.50;58.00
17252;DHT22;8742;51.716;8.790;2022-08-25T15:56:51;40.40;58.80
17252;DHT22;8742;51.716;8.790;2022-08-25T15:59:18;40.20;58.60
17252;DHT22;8742;51.716;8.790;2022-08-25T16:01:45;39.70;58.20
17252;DHT22;8742;51.716;8.790;2022-08-25T16:04:13;38.70;58.30
17252;DHT22;8742;51.716;8.790;2022-08-25T16:06:40;37.60;58.40
17252;DHT22;8742;51.716;8.790;2022-08-25T16:09:08;36.70;58.90
17252;DHT22;8742;51.716;8.790;2022-08-25T16:11:35;35.80;59.90
17252;DHT22;8742;51.716;8.790;2022-08-25T16:14:04;35.00;59.20
17252;DHT22;8742;51.716;8.790;2022-08-25T16:16:31;34.40;59.90
17252;DHT22;8742;51.716;8.790;2022-08-25T16:18:58;33.80;60.30
17252;DHT22;8742;51.716;8.790;2022-08-25T16:21:26;33.40;60.30
17252;DHT22;8742;51.716;8.790;2022-08-25T16:23:55;33.00;60.20
17252;DHT22;8742;51.716;8.790;2022-08-25T16:26:23;32.60;60.60
17252;DHT22;8742;51.716;8.790;2022-08-25T16:28:51;32.30;61.00
17252;DHT22;8742;51.716;8.790;2022-08-25T16:31:18;32.10;61.30
17252;DHT22;8742;51.716;8.790;2022-08-25T16:33:45;31.90;61.40
17252;DHT22;8742;51.716;8.790;2022-08-25T16:36:15;31.70;61.70
17252;DHT22;8742;51.716;8.790;2022-08-25T16:38:43;31.50;61.90
17252;DHT22;8742;51.716;8.790;2022-08-25T16:41:12;31.30;62.10
17252;DHT22;8742;51.716;8.790;2022-08-25T16:43:41;31.20;62.00
17252;DHT22;8742;51.716;8.790;2022-08-25T16:46:11;31.10;62.00
17252;DHT22;8742;51.716;8.790;2022-08-25T16:48:39;30.90;62.10
17252;DHT22;8742;51.716;8.790;2022-08-25T16:51:07;30.80;62.20
17252;DHT22;8742;51.716;8.790;2022-08-25T16:53:34;30.70;62.50
17252;DHT22;8742;51.716;8.790;2022-08-25T16:56:19;30.60;62.60
17252;DHT22;8742;51.716;8.790;2022-08-25T16:58:51;30.50;62.60
17252;DHT22;8742;51.716;8.790;2022-08-25T17:01:18;30.40;62.70
17252;DHT22;8742;51.716;8.790;2022-08-25T17:03:46;30.30;62.60
17252;DHT22;8742;51.716;8.790;2022-08-25T17:06:13;30.20;62.60
17252;DHT22;8742;51.716;8.790;2022-08-25T17:08:40;30.20;62.80
17252;DHT22;8742;51.716;8.790;2022-08-25T17:11:10;30.10;62.80
17252;DHT22;8742;51.716;8.790;2022-08-25T17:13:40;30.00;63.60
17252;DHT22;8742;51.716;8.790;2022-08-25T17:16:09;30.00;63.00
17252;DHT22;8742;51.716;8.790;2022-08-25T17:18:37;29.90;63.10
17252;DHT22;8742;51.716;8.790;2022-08-25T17:21:06;29.90;63.20
17252;DHT22;8742;51.716;8.790;2022-08-25T17:23:34;29.80;63.20
17252;DHT22;8742;51.716;8.790;2022-08-25T17:26:02;29.80;63.50
17252;DHT22;8742;51.716;8.790;2022-08-25T17:28:30;29.80;63.60
17252;DHT22;8742;51.716;8.790;2022-08-25T17:30:57;29.70;63.70
17252;DHT22;8742;51.716;8.790;2022-08-25T17:33:25;29.70;63.90
17252;DHT22;8742;51.716;8.790;2022-08-25T17:35:54;29.60;66.90
17252;DHT22;8742;51.716;8.790;2022-08-25T17:38:23;29.60;72.40
17252;DHT22;8742;51.716;8.790;2022-08-25T17:40:51;30.20;64.80
17252;DHT22;8742;51.716;8.790;2022-08-25T17:43:18;29.50;64.30
17252;DHT22;8742;51.716;8.790;2022-08-25T17:45:46;29.40;64.30
17252;DHT22;8742;51.716;8.790;2022-08-25T17:48:13;29.40;64.40
17252;DHT22;8742;51.716;8.790;2022-08-25T17:50:42;29.40;64.60
17252;DHT22;8742;51.716;8.790;2022-08-25T17:53:11;29.30;64.70
17252;DHT22;8742;51.716;8.790;2022-08-25T18:05:29;29.20;79.30
17252;DHT22;8742;51.716;8.790;2022-08-25T18:07:57;29.10;80.60
17252;DHT22;8742;51.716;8.790;2022-08-25T18:10:25;29.00;80.90
17252;DHT22;8742;51.716;8.790;2022-08-25T18:25:14;28.60;96.50
17252;DHT22;8742;51.716;8.790;2022-08-25T18:27:41;28.60;67.40
17252;DHT22;8742;51.716;8.790;2022-08-25T18:30:09;28.50;66.80
17252;DHT22;8742;51.716;8.790;2022-08-25T18:32:36;28.50;66.80
17252;DHT22;8742;51.716;8.790;2022-08-25T18:42:51;27.80;86.20
17252;DHT22;8742;51.716;8.790;2022-08-25T18:52:45;27.80;94.40
17252;DHT22;8742;51.716;8.790;2022-08-25T19:07:32;27.40;98.00
17252;DHT22;8742;51.716;8.790;2022-08-25T19:09:59;27.30;90.40
17252;DHT22;8742;51.716;8.790;2022-08-25T19:12:25;27.20;89.60
17252;DHT22;8742;51.716;8.790;2022-08-25T19:14:54;27.20;89.70
17252;DHT22;8742;51.716;8.790;2022-08-25T19:17:21;27.10;91.30
17252;DHT22;8742;51.716;8.790;2022-08-25T19:19:48;27.10;87.40
17252;DHT22;8742;51.716;8.790;2022-08-25T19:22:15;27.10;69.00
17252;DHT22;8742;51.716;8.790;2022-08-25T19:24:43;27.00;69.20
17252;DHT22;8742;51.716;8.790;2022-08-25T19:27:10;26.90;69.20
17252;DHT22;8742;51.716;8.790;2022-08-25T19:32:06;26.80;68.70
17252;DHT22;8742;51.716;8.790;2022-08-25T19:34:37;26.80;69.70
17252;DHT22;8742;51.716;8.790;2022-08-25T19:37:09;26.70;69.60
17252;DHT22;8742;51.716;8.790;2022-08-25T19:39:38;26.60;69.60
17252;DHT22;8742;51.716;8.790;2022-08-25T19:42:06;26.60;69.70
17252;DHT22;8742;51.716;8.790;2022-08-25T19:44:34;26.60;70.00
17252;DHT22;8742;51.716;8.790;2022-08-25T19:47:02;26.50;70.80
17252;DHT22;8742;51.716;8.790;2022-08-25T19:49:33;26.40;92.10
17252;DHT22;8742;51.716;8.790;2022-08-25T19:52:03;26.30;92.20
17252;DHT22;8742;51.716;8.790;2022-08-25T19:54:32;26.30;85.70
17252;DHT22;8742;51.716;8.790;2022-08-25T19:57:00;26.30;70.70
17252;DHT22;8742;51.716;8.790;2022-08-25T19:59:29;26.20;70.80
17252;DHT22;8742;51.716;8.790;2022-08-25T20:01:57;26.20;71.20
17252;DHT22;8742;51.716;8.790;2022-08-25T20:04:24;26.10;71.10
17252;DHT22;8742;51.716;8.790;2022-08-25T20:06:53;26.10;71.30
17252;DHT22;8742;51.716;8.790;2022-08-25T20:09:21;26.00;71.30
17252;DHT22;8742;51.716;8.790;2022-08-25T20:11:48;26.00;71.50
17252;DHT22;8742;51.716;8.790;2022-08-25T20:14:15;26.00;71.70
17252;DHT22;8742;51.716;8.790;2022-08-25T20:16:42;25.90;71.70
17252;DHT22;8742;51.716;8.790;2022-08-25T20:19:09;25.90;71.80
17252;DHT22;8742;51.716;8.790;2022-08-25T20:21:37;25.80;71.80
17252;DHT22;8742;51.716;8.790;2022-08-25T20:24:07;25.80;72.20
17252;DHT22;8742;51.716;8.790;2022-08-25T20:26:52;25.80;72.30
17252;DHT22;8742;51.716;8.790;2022-08-25T20:29:19;25.70;72.20
17252;DHT22;8742;51.716;8.790;2022-08-25T20:36:41;25.60;99.40
17252;DHT22;8742;51.716;8.790;2022-08-25T20:39:10;25.60;95.20
17252;DHT22;8742;51.716;8.790;2022-08-25T20:41:37;25.50;92.50
17252;DHT22;8742;51.716;8.790;2022-08-25T20:44:05;25.50;73.30
17252;DHT22;8742;51.716;8.790;2022-08-25T20:46:33;25.50;73.50
17252;DHT22;8742;51.716;8.790;2022-08-25T20:49:00;25.40;73.70
17252;DHT22;8742;51.716;8.790;2022-08-25T20:51:27;25.40;73.60
17252;DHT22;8742;51.716;8.790;2022-08-25T20:53:55;25.30;73.70
17252;DHT22;8742;51.716;8.790;2022-08-25T20:56:23;25.30;73.60
17252;DHT22;8742;51.716;8.790;2022-08-25T20:58:50;25.30;73.80
17252;DHT22;8742;51.716;8.790;2022-08-25T21:01:19;25.30;74.20
17252;DHT22;8742;51.716;8.790;2022-08-25T21:03:46;25.20;74.90
17252;DHT22;8742;51.716;8.790;2022-08-25T21:06:14;25.20;74.10
17252;DHT22;8742;51.716;8.790;2022-08-25T21:08:42;25.20;74.70
17252;DHT22;8742;51.716;8.790;2022-08-25T21:11:10;25.10;74.50
17252;DHT22;8742;51.716;8.790;2022-08-25T21:13:38;25.10;74.50
17252;DHT22;8742;51.716;8.790;2022-08-25T21:16:06;25.10;74.60
17252;DHT22;8742;51.716;8.790;2022-08-25T21:18:34;25.10;74.80
17252;DHT22;8742;51.716;8.790;2022-08-25T21:21:05;25.00;74.70
17252;DHT22;8742;51.716;8.790;2022-08-25T21:23:36;25.00;74.70